createdAt,value
2022-12-25T00:01:56.925Z,4.53
2022-12-25T00:04:24.467Z,4.30
2022-12-25T00:06:52.560Z,4.72
2022-12-25T00:09:20.726Z,4.50
2022-12-25T00:11:48.580Z,3.30
2022-12-25T00:14:16.459Z,2.65
2022-12-25T00:16:44.304Z,2.97
2022-12-25T00:19:11.866Z,2.78
2022-12-25T00:21:39.426Z,2.80
2022-12-25T00:24:07.502Z,3.67
2022-12-25T00:26:35.361Z,3.17
2022-12-25T00:29:03.270Z,3.80
2022-12-25T00:31:31.176Z,3.00
2022-12-25T00:33:59.121Z,2.85
2022-12-25T00:36:26.945Z,2.90
2022-12-25T00:38:55.020Z,3.20
2022-12-25T00:41:42.698Z,3.90
2022-12-25T00:44:13.626Z,3.30
2022-12-25T00:46:42.521Z,3.33
2022-12-25T00:49:11.478Z,3.65
2022-12-25T00:51:39.598Z,3.22
2022-12-25T00:54:07.935Z,2.92
2022-12-25T00:56:35.743Z,3.72
2022-12-25T00:59:05.340Z,3.53
2022-12-25T01:01:34.090Z,5.32
2022-12-25T01:04:02.216Z,3.67
2022-12-25T01:06:30.596Z,3.72
2022-12-25T01:09:17.378Z,3.47
2022-12-25T01:11:45.366Z,2.58
2022-12-25T01:14:13.441Z,3.88
2022-12-25T01:16:41.992Z,1.98
2022-12-25T01:19:10.494Z,2.25
2022-12-25T01:21:38.711Z,2.55
2022-12-25T01:24:07.138Z,2.47
2022-12-25T01:26:35.295Z,2.40
2022-12-25T01:29:03.708Z,2.33
2022-12-25T01:31:31.218Z,2.10
2022-12-25T01:33:59.363Z,1.52
2022-12-25T01:36:27.644Z,2.70
2022-12-25T01:38:56.211Z,1.90
2022-12-25T01:41:25.673Z,2.10
2022-12-25T01:43:59.737Z,2.83
2022-12-25T01:46:27.697Z,2.13
2022-12-25T01:48:57.216Z,2.65
2022-12-25T01:51:36.833Z,1.90
2022-12-25T01:54:06.515Z,1.77
2022-12-25T01:56:35.083Z,2.10
2022-12-25T01:59:03.613Z,2.33
2022-12-25T02:01:31.553Z,2.10
2022-12-25T02:04:03.809Z,2.00
2022-12-25T02:06:31.937Z,1.90
2022-12-25T02:08:59.663Z,2.25
2022-12-25T02:11:45.578Z,2.20
2022-12-25T02:14:13.571Z,2.10
2022-12-25T02:16:57.753Z,1.92
2022-12-25T02:19:56.574Z,1.60
2022-12-25T02:22:42.334Z,2.25
2022-12-25T02:25:27.589Z,2.45
2022-12-25T02:28:21.466Z,2.42
2022-12-25T02:31:15.190Z,2.88
2022-12-25T02:34:05.026Z,2.80
2022-12-25T02:36:46.227Z,3.35
2022-12-25T02:39:41.267Z,2.65
2022-12-25T02:42:16.483Z,2.30
2022-12-25T02:45:04.795Z,2.30
2022-12-25T02:47:51.934Z,4.00
2022-12-25T02:50:41.800Z,2.40
2022-12-25T02:53:29.590Z,2.73
2022-12-25T02:56:16.636Z,3.45
2022-12-25T02:59:04.595Z,2.55
2022-12-25T03:01:52.622Z,3.60
2022-12-25T03:04:41.828Z,3.28
2022-12-25T03:07:17.536Z,3.88
2022-12-25T03:10:09.465Z,3.25
2022-12-25T03:15:26.545Z,3.13
2022-12-25T03:17:54.945Z,3.45
2022-12-25T03:20:41.370Z,3.40
2022-12-25T03:23:29.945Z,3.58
2022-12-25T03:26:16.357Z,3.40
2022-12-25T03:28:43.892Z,3.13
2022-12-25T03:31:11.931Z,3.97
2022-12-25T03:34:25.265Z,3.75
2022-12-25T03:37:30.440Z,4.35
2022-12-25T03:40:45.087Z,4.03
2022-12-25T03:43:30.792Z,4.15
2022-12-25T03:46:19.639Z,4.35
2022-12-25T03:49:08.966Z,3.58
2022-12-25T03:51:57.268Z,3.67
2022-12-25T03:54:48.202Z,3.35
2022-12-25T03:57:34.158Z,3.33
2022-12-25T04:00:20.755Z,4.18
2022-12-25T04:03:06.777Z,3.60
2022-12-25T04:05:52.956Z,3.20
2022-12-25T04:08:39.573Z,4.80
2022-12-25T04:11:26.269Z,4.22
2022-12-25T04:14:12.909Z,3.67
2022-12-25T04:16:59.488Z,5.00
2022-12-25T04:19:46.160Z,4.70
2022-12-25T04:22:32.629Z,3.85
2022-12-25T04:25:18.610Z,4.97
2022-12-25T04:28:04.879Z,4.60
2022-12-25T04:30:51.357Z,3.53
2022-12-25T04:33:38.169Z,4.10
2022-12-25T04:36:09.473Z,3.85
2022-12-25T04:38:37.891Z,4.38
2022-12-25T04:41:05.920Z,4.65
2022-12-25T04:43:33.457Z,4.00
2022-12-25T04:46:02.286Z,3.47
2022-12-25T04:48:31.673Z,4.07
2022-12-25T04:50:59.640Z,4.60
2022-12-25T04:53:27.981Z,3.75
2022-12-25T04:56:01.927Z,4.13
2022-12-25T04:58:31.239Z,3.97
2022-12-25T05:01:02.516Z,3.35
2022-12-25T05:03:31.332Z,4.10
2022-12-25T05:05:59.451Z,4.05
2022-12-25T05:08:30.603Z,4.55
2022-12-25T05:10:59.028Z,3.58
2022-12-25T05:13:27.054Z,4.60
2022-12-25T05:15:55.000Z,4.05
2022-12-25T05:18:23.116Z,5.40
2022-12-25T05:20:55.111Z,3.97
2022-12-25T05:23:23.385Z,4.18
2022-12-25T05:25:51.374Z,3.72
2022-12-25T05:28:19.525Z,4.18
2022-12-25T05:30:47.543Z,3.42
2022-12-25T05:33:15.426Z,4.43
2022-12-25T05:35:43.251Z,3.85
2022-12-25T05:38:11.122Z,4.57
2022-12-25T05:40:41.089Z,3.92
2022-12-25T05:43:09.282Z,4.35
2022-12-25T05:45:37.563Z,4.35
2022-12-25T05:48:05.442Z,6.75
2022-12-25T05:50:33.546Z,4.78
2022-12-25T05:53:09.131Z,4.18
2022-12-25T05:55:37.573Z,4.45
2022-12-25T05:58:06.049Z,4.05
2022-12-25T06:00:34.767Z,4.45
2022-12-25T06:03:02.476Z,4.28
2022-12-25T06:05:30.715Z,3.88
2022-12-25T06:07:58.594Z,6.00
2022-12-25T06:10:26.454Z,5.88
2022-12-25T06:12:55.259Z,5.07
2022-12-25T06:15:23.209Z,4.53
2022-12-25T06:17:51.110Z,5.80
2022-12-25T06:20:18.980Z,5.30
2022-12-25T06:22:46.937Z,4.45
2022-12-25T06:25:15.041Z,4.68
2022-12-25T06:27:42.902Z,7.05
2022-12-25T06:30:11.029Z,4.03
2022-12-25T06:32:38.887Z,6.15
2022-12-25T06:35:07.092Z,5.28
2022-12-25T06:37:35.167Z,4.07
2022-12-25T06:40:03.056Z,4.90
2022-12-25T06:42:30.887Z,5.20
2022-12-25T06:44:58.935Z,4.72
2022-12-25T06:47:26.979Z,5.18
2022-12-25T06:49:54.831Z,6.10
2022-12-25T06:52:22.674Z,5.30
2022-12-25T06:54:50.162Z,4.68
2022-12-25T06:57:18.933Z,4.68
2022-12-25T06:59:52.943Z,5.72
2022-12-25T07:02:23.828Z,5.75
2022-12-25T07:04:52.028Z,5.30
2022-12-25T07:07:20.773Z,5.30
2022-12-25T07:09:48.283Z,5.07
2022-12-25T07:12:20.905Z,4.80
2022-12-25T07:14:51.318Z,4.88
2022-12-25T07:17:20.712Z,6.32
2022-12-25T07:19:48.665Z,3.85
2022-12-25T07:22:17.288Z,6.22
2022-12-25T07:24:45.099Z,5.03
2022-12-25T07:27:13.026Z,5.22
2022-12-25T07:29:40.848Z,4.22
2022-12-25T07:32:08.767Z,4.65
2022-12-25T07:34:36.264Z,5.57
2022-12-25T07:37:03.938Z,4.70
2022-12-25T07:39:32.114Z,4.80
2022-12-25T07:42:00.136Z,4.80
2022-12-25T07:44:29.140Z,5.47
2022-12-25T07:46:57.165Z,5.65
2022-12-25T07:49:25.043Z,4.93
2022-12-25T07:51:52.882Z,5.00
2022-12-25T07:54:20.887Z,5.90
2022-12-25T07:56:52.552Z,4.80
2022-12-25T08:01:50.061Z,5.20
2022-12-25T08:04:17.886Z,6.35
2022-12-25T08:06:45.452Z,5.97
2022-12-25T08:09:13.559Z,4.82
2022-12-25T08:11:45.848Z,5.45
2022-12-25T08:14:14.029Z,4.78
2022-12-25T08:16:42.428Z,5.70
2022-12-25T08:19:10.464Z,5.10
2022-12-25T08:21:39.013Z,5.07
2022-12-25T08:24:07.212Z,5.35
2022-12-25T08:26:35.223Z,4.38
2022-12-25T08:29:03.587Z,5.28
2022-12-25T08:31:34.198Z,4.78
2022-12-25T08:34:03.534Z,5.60
2022-12-25T08:36:31.580Z,4.90
2022-12-25T08:39:03.045Z,5.32
2022-12-25T08:41:32.553Z,5.82
2022-12-25T08:44:00.564Z,5.32
2022-12-25T08:46:28.546Z,6.82
2022-12-25T08:48:56.976Z,5.05
2022-12-25T08:51:26.097Z,4.90
2022-12-25T08:53:58.398Z,5.90
2022-12-25T08:56:26.264Z,5.55
2022-12-25T08:58:54.105Z,5.88
2022-12-25T09:01:22.016Z,6.15
2022-12-25T09:03:49.797Z,7.97
2022-12-25T09:06:18.121Z,6.90
2022-12-25T09:08:49.038Z,5.53
2022-12-25T09:13:45.297Z,4.85
2022-12-25T09:16:14.487Z,5.43
2022-12-25T09:18:41.991Z,5.32
2022-12-25T09:21:11.657Z,5.03
2022-12-25T09:23:40.042Z,5.55
2022-12-25T09:26:08.717Z,6.75
2022-12-25T09:28:36.308Z,7.25
2022-12-25T09:31:05.015Z,7.13
2022-12-25T09:33:32.926Z,6.15
2022-12-25T09:36:02.663Z,6.38
2022-12-25T09:38:30.993Z,6.43
2022-12-25T09:41:09.166Z,5.80
2022-12-25T09:43:49.383Z,5.78
2022-12-25T09:46:19.867Z,4.60
2022-12-25T09:49:03.561Z,5.78
2022-12-25T09:51:33.893Z,6.78
2022-12-25T09:54:05.193Z,6.57
2022-12-25T09:56:33.159Z,5.18
2022-12-25T09:59:01.412Z,4.82
2022-12-25T10:01:32.825Z,4.95
2022-12-25T10:04:13.132Z,6.72
2022-12-25T10:06:59.966Z,6.10
2022-12-25T10:09:27.872Z,5.72
2022-12-25T10:12:14.539Z,5.22
2022-12-25T10:14:48.775Z,4.70
2022-12-25T10:17:28.477Z,5.35
2022-12-25T10:19:56.539Z,4.50
2022-12-25T10:22:43.310Z,4.25
2022-12-25T10:25:16.369Z,4.25
2022-12-25T10:27:44.548Z,4.72
2022-12-25T10:30:20.039Z,4.05
2022-12-25T10:32:48.709Z,7.90
2022-12-25T10:35:19.159Z,4.65
2022-12-25T10:37:53.291Z,4.75
2022-12-25T10:40:28.910Z,5.25
2022-12-25T10:43:00.166Z,4.82
2022-12-25T10:45:28.329Z,5.93
2022-12-25T10:48:07.527Z,4.15
2022-12-25T10:50:43.330Z,4.45
2022-12-25T10:53:28.581Z,6.82
2022-12-25T10:56:03.421Z,5.95
2022-12-25T10:58:32.049Z,5.60
2022-12-25T11:01:02.933Z,7.00
2022-12-25T11:03:32.414Z,4.18
2022-12-25T11:06:01.184Z,5.53
2022-12-25T11:08:30.286Z,4.45
2022-12-25T11:10:59.631Z,4.80
2022-12-25T11:13:29.138Z,4.65
2022-12-25T11:16:06.235Z,5.05
2022-12-25T11:18:35.663Z,4.15
2022-12-25T11:21:16.820Z,4.90
2022-12-25T11:23:49.331Z,5.22
2022-12-25T11:26:18.461Z,4.28
2022-12-25T11:28:48.839Z,5.10
2022-12-25T11:31:21.481Z,4.28
2022-12-25T11:34:06.517Z,5.53
2022-12-25T11:36:37.403Z,5.40
2022-12-25T11:39:19.163Z,5.07
2022-12-25T11:44:30.085Z,4.28
2022-12-25T11:46:59.416Z,4.35
2022-12-25T11:49:27.268Z,4.43
2022-12-25T11:51:57.184Z,4.50
2022-12-25T11:54:25.318Z,4.70
2022-12-25T11:56:53.475Z,4.45
2022-12-25T11:59:36.151Z,4.25
2022-12-25T12:02:22.936Z,4.20
2022-12-25T12:04:56.080Z,7.20
2022-12-25T12:07:23.934Z,4.07
2022-12-25T12:10:19.494Z,3.80
2022-12-25T12:13:08.730Z,3.90
2022-12-25T12:15:41.831Z,4.13
2022-12-25T12:18:10.041Z,4.30
2022-12-25T12:20:37.795Z,5.70
2022-12-25T12:23:13.173Z,6.28
2022-12-25T12:25:42.475Z,4.18
2022-12-25T12:28:14.068Z,4.40
2022-12-25T12:30:41.961Z,5.38
2022-12-25T12:33:19.607Z,4.15
2022-12-25T12:35:48.443Z,4.25
2022-12-25T12:38:18.845Z,4.10
2022-12-25T12:41:14.754Z,4.60
2022-12-25T12:44:04.464Z,5.90
2022-12-25T12:46:36.519Z,7.03
2022-12-25T12:49:16.543Z,4.55
2022-12-25T12:51:44.170Z,5.60
2022-12-25T12:54:24.529Z,4.28
2022-12-25T12:56:59.732Z,5.28
2022-12-25T12:59:34.864Z,4.20
2022-12-25T13:02:22.465Z,3.25
2022-12-25T13:05:22.950Z,4.78
2022-12-25T13:08:10.147Z,3.22
2022-12-25T13:10:41.391Z,3.33
2022-12-25T13:13:23.203Z,3.33
2022-12-25T13:18:20.474Z,3.42
2022-12-25T13:20:55.655Z,3.25
2022-12-25T13:23:30.475Z,3.20
2022-12-25T13:26:03.364Z,3.28
2022-12-25T13:28:33.499Z,2.72
2022-12-25T13:31:11.341Z,3.20
2022-12-25T13:33:45.084Z,2.97
2022-12-25T13:36:14.187Z,2.88
2022-12-25T13:38:47.238Z,3.03
2022-12-25T13:41:49.000Z,2.58
2022-12-25T13:44:26.215Z,3.17
2022-12-25T13:46:54.244Z,2.95
2022-12-25T13:49:23.350Z,3.42
2022-12-25T13:51:51.540Z,3.20
2022-12-25T13:54:19.975Z,2.78
2022-12-25T13:56:47.865Z,2.38
2022-12-25T13:59:18.822Z,2.50
2022-12-25T14:01:47.395Z,2.55
2022-12-25T14:04:16.871Z,3.42
2022-12-25T14:06:45.137Z,2.40
2022-12-25T14:09:14.039Z,2.85
2022-12-25T14:11:48.041Z,2.30
2022-12-25T14:14:20.410Z,2.03
2022-12-25T14:16:49.482Z,1.80
2022-12-25T14:19:27.476Z,1.83
2022-12-25T14:21:58.737Z,2.38
2022-12-25T14:24:27.928Z,2.05
2022-12-25T14:27:06.697Z,2.33
2022-12-25T14:29:40.452Z,2.65
2022-12-25T14:32:10.824Z,1.90
2022-12-25T14:34:38.732Z,2.08
2022-12-25T14:37:08.349Z,1.80
2022-12-25T14:39:37.724Z,2.03
2022-12-25T14:42:23.701Z,2.33
2022-12-25T14:45:06.581Z,2.80
2022-12-25T14:47:50.191Z,1.60
2022-12-25T14:50:28.991Z,2.40
2022-12-25T14:52:57.407Z,1.85
2022-12-25T14:55:27.279Z,5.40
2022-12-25T14:57:58.667Z,2.40
2022-12-25T15:00:31.734Z,1.90
2022-12-25T15:03:00.455Z,2.40
2022-12-25T15:05:31.690Z,2.13
2022-12-25T15:08:07.432Z,2.00
2022-12-25T15:13:24.096Z,1.60
2022-12-25T15:15:53.933Z,2.47
2022-12-25T15:18:23.388Z,2.80
2022-12-25T15:20:54.947Z,2.80
2022-12-25T15:25:51.143Z,2.25
2022-12-25T15:28:19.049Z,3.13
2022-12-25T15:30:46.985Z,2.15
2022-12-25T15:33:15.912Z,2.10
2022-12-25T15:35:44.450Z,1.98
2022-12-25T15:38:13.301Z,3.53
2022-12-25T15:40:41.603Z,3.33
2022-12-25T15:43:38.928Z,4.72
2022-12-25T15:46:01.784Z,3.83
2022-12-25T15:48:29.466Z,3.75
2022-12-25T15:50:57.485Z,3.80
2022-12-25T15:53:26.973Z,4.40
2022-12-25T15:55:54.924Z,4.93
2022-12-25T15:58:22.771Z,3.40
2022-12-25T16:00:51.249Z,3.55
2022-12-25T16:03:19.118Z,3.63
2022-12-25T16:05:47.061Z,3.72
2022-12-25T16:08:14.908Z,3.10
2022-12-25T16:10:42.889Z,4.07
2022-12-25T16:13:10.722Z,3.85
2022-12-25T16:15:38.253Z,4.72
2022-12-25T16:18:06.524Z,3.83
2022-12-25T16:20:35.153Z,4.45
2022-12-25T16:23:02.973Z,4.43
2022-12-25T16:25:30.886Z,4.75
2022-12-25T16:27:58.887Z,5.57
2022-12-25T16:30:26.827Z,5.82
2022-12-25T16:32:54.755Z,4.95
2022-12-25T16:35:22.803Z,4.32
2022-12-25T16:37:50.632Z,5.38
2022-12-25T16:40:18.361Z,5.03
2022-12-25T16:42:46.353Z,5.15
2022-12-25T16:45:15.154Z,4.45
2022-12-25T16:47:43.013Z,4.50
2022-12-25T16:50:11.019Z,4.13
2022-12-25T16:52:39.032Z,5.00
2022-12-25T16:55:07.090Z,4.38
2022-12-25T16:57:34.960Z,4.57
2022-12-25T17:00:02.791Z,4.65
2022-12-25T17:02:31.484Z,4.80
2022-12-25T17:05:00.462Z,4.85
2022-12-25T17:07:28.410Z,3.88
2022-12-25T17:09:57.244Z,4.28
2022-12-25T17:12:25.058Z,3.95
2022-12-25T17:14:53.070Z,3.50
2022-12-25T17:17:20.953Z,3.05
2022-12-25T17:19:48.919Z,3.08
2022-12-25T17:22:16.750Z,3.60
2022-12-25T17:24:44.629Z,3.33
2022-12-25T17:27:12.436Z,3.38
2022-12-25T17:29:40.287Z,3.33
2022-12-25T17:32:08.812Z,3.80
2022-12-25T17:34:36.871Z,3.28
2022-12-25T17:37:04.923Z,3.78
2022-12-25T17:39:32.847Z,3.85
2022-12-25T17:42:00.677Z,3.70
2022-12-25T17:44:28.204Z,4.35
2022-12-25T17:46:56.398Z,4.45
2022-12-25T17:49:24.289Z,4.13
2022-12-25T17:51:52.312Z,4.15
2022-12-25T17:54:20.311Z,4.00
2022-12-25T17:56:48.173Z,4.25
2022-12-25T17:59:18.786Z,3.40
2022-12-25T18:01:48.259Z,3.83
2022-12-25T18:04:16.533Z,3.92
2022-12-25T18:06:44.660Z,3.63
2022-12-25T18:09:13.052Z,3.97
2022-12-25T18:11:41.929Z,3.70
2022-12-25T18:14:12.153Z,3.22
2022-12-25T18:16:42.060Z,3.72
2022-12-25T18:19:10.670Z,2.83
2022-12-25T18:21:38.242Z,3.22
2022-12-25T18:24:07.222Z,3.17
2022-12-25T18:26:35.287Z,3.40
2022-12-25T18:29:03.269Z,3.72
2022-12-25T18:31:31.610Z,3.17
2022-12-25T18:34:00.305Z,3.05
2022-12-25T18:36:28.997Z,3.90
2022-12-25T18:38:57.084Z,3.42
2022-12-25T18:41:25.023Z,3.63
2022-12-25T18:43:55.575Z,3.20
2022-12-25T18:46:27.955Z,3.35
2022-12-25T18:48:56.591Z,3.78
2022-12-25T18:51:24.554Z,3.90
2022-12-25T18:53:52.167Z,3.35
2022-12-25T18:56:21.084Z,3.20
2022-12-25T18:58:48.996Z,3.05
2022-12-25T19:01:21.809Z,3.17
2022-12-25T19:03:50.018Z,3.50
2022-12-25T19:06:26.378Z,3.72
2022-12-25T19:08:55.471Z,3.92
2022-12-25T19:11:23.687Z,4.68
2022-12-25T19:13:51.640Z,3.50
2022-12-25T19:16:19.097Z,3.80
2022-12-25T19:18:47.299Z,3.90
2022-12-25T19:21:16.104Z,3.53
2022-12-25T19:23:44.214Z,3.40
2022-12-25T19:26:12.841Z,3.88
2022-12-25T19:28:41.058Z,3.90
2022-12-25T19:31:09.551Z,4.10
2022-12-25T19:33:40.132Z,4.55
2022-12-25T19:36:10.052Z,3.63
2022-12-25T19:38:37.558Z,4.32
2022-12-25T19:41:13.901Z,4.00
2022-12-25T19:43:42.645Z,4.25
2022-12-25T19:46:23.658Z,4.07
2022-12-25T19:48:51.769Z,5.10
2022-12-25T19:51:25.588Z,4.43
2022-12-25T19:53:56.264Z,3.53
2022-12-25T19:56:24.261Z,4.15
2022-12-25T19:58:52.134Z,5.38
2022-12-25T20:01:21.336Z,5.03
2022-12-25T20:03:49.343Z,5.85
2022-12-25T20:06:20.658Z,5.63
2022-12-25T20:08:49.957Z,6.13
2022-12-25T20:11:18.073Z,5.32
2022-12-25T20:13:46.601Z,5.88
2022-12-25T20:16:14.807Z,6.65
2022-12-25T20:18:42.873Z,6.97
2022-12-25T20:21:14.129Z,7.03
2022-12-25T20:23:42.968Z,7.63
2022-12-25T20:26:11.685Z,7.05
2022-12-25T20:28:41.681Z,7.93
2022-12-25T20:31:11.089Z,6.55
2022-12-25T20:33:38.997Z,7.30
2022-12-25T20:36:07.404Z,6.80
2022-12-25T20:38:36.966Z,6.68
2022-12-25T20:41:27.325Z,6.60
2022-12-25T20:43:55.673Z,6.30
2022-12-25T20:46:24.048Z,6.47
2022-12-25T20:48:53.066Z,6.50
2022-12-25T20:51:25.740Z,7.60
2022-12-25T20:53:54.006Z,6.70
2022-12-25T20:56:24.699Z,6.35
2022-12-25T20:58:59.869Z,8.57
2022-12-25T21:01:28.509Z,6.22
2022-12-25T21:03:56.826Z,6.05
2022-12-25T21:06:25.052Z,8.07
2022-12-25T21:08:53.259Z,6.80
2022-12-25T21:11:22.122Z,7.05
2022-12-25T21:13:50.485Z,5.78
2022-12-25T21:16:22.649Z,6.43
2022-12-25T21:18:54.380Z,6.60
2022-12-25T21:23:50.521Z,5.32
2022-12-25T21:26:29.216Z,5.53
2022-12-25T21:29:00.263Z,6.55
2022-12-25T21:31:29.369Z,6.13
2022-12-25T21:33:57.798Z,5.78
2022-12-25T21:36:31.458Z,5.85
2022-12-25T21:39:03.619Z,6.38
2022-12-25T21:41:32.394Z,5.95
2022-12-25T21:44:00.567Z,5.40
2022-12-25T21:46:29.140Z,6.43
2022-12-25T21:48:57.513Z,6.90
2022-12-25T21:51:46.369Z,6.97
2022-12-25T21:54:14.910Z,5.90
2022-12-25T21:56:45.749Z,5.88
2022-12-25T21:59:15.398Z,5.80
2022-12-25T22:01:43.882Z,6.90
2022-12-25T22:04:12.305Z,7.90
2022-12-25T22:06:59.237Z,7.05
2022-12-25T22:09:27.538Z,7.10
2022-12-25T22:12:14.329Z,11.23
2022-12-25T22:14:56.805Z,11.68
2022-12-25T22:17:48.157Z,20.88
2022-12-25T22:20:20.098Z,7.78
2022-12-25T22:22:48.095Z,5.78
2022-12-25T22:25:16.417Z,6.10
2022-12-25T22:27:46.129Z,7.20
2022-12-25T22:30:15.760Z,5.72
2022-12-25T22:32:44.065Z,6.25
2022-12-25T22:35:12.606Z,6.10
2022-12-25T22:37:41.176Z,6.60
2022-12-25T22:40:10.058Z,8.00
2022-12-25T22:42:38.059Z,6.05
2022-12-25T22:45:06.248Z,7.45
2022-12-25T22:47:33.983Z,6.20
2022-12-25T22:50:01.947Z,5.80
2022-12-25T22:52:29.832Z,6.82
2022-12-25T22:54:57.705Z,6.65
2022-12-25T22:57:25.607Z,6.85
2022-12-25T22:59:53.459Z,5.72
2022-12-25T23:02:21.650Z,4.65
2022-12-25T23:04:49.768Z,4.05
2022-12-25T23:07:17.476Z,4.95
2022-12-25T23:09:45.725Z,4.30
2022-12-25T23:12:33.452Z,4.38
2022-12-25T23:15:01.462Z,4.43
2022-12-25T23:17:47.925Z,4.07
2022-12-25T23:20:34.346Z,4.63
2022-12-25T23:23:21.471Z,4.35
2022-12-25T23:26:07.551Z,4.32
2022-12-25T23:28:55.742Z,3.65
2022-12-25T23:31:26.129Z,4.15
2022-12-25T23:33:53.735Z,4.35
2022-12-25T23:36:22.132Z,4.03
2022-12-25T23:38:51.314Z,4.20
2022-12-25T23:41:19.322Z,3.22
2022-12-25T23:43:47.409Z,3.97
2022-12-25T23:46:15.297Z,3.97
2022-12-25T23:48:43.256Z,4.22
2022-12-25T23:51:11.365Z,3.42
2022-12-25T23:53:39.231Z,3.35
2022-12-25T23:56:07.159Z,2.72
2022-12-25T23:58:35.049Z,3.15
